Terminal Aerodrome Forecast
Issued by NWS Wilmington, NC

Home | Current Version | Previous Version | Text Only | Print | Product List | Glossary On
Versions: 1 2 3 4 5 6 7 8 9 10 11 12 13 14 15 16 17 18 19 20 21
000
FTUS42 KILM 301156 CCA
TAFLBT
TAF COR
KLBT 301156Z 3012/0112 VRB03KT 3SM BR VCSH BKN003 BKN012 BKN080
      TEMPO 3012/3013 2SM BR BKN005 BKN012
     FM301400 14004KT P6SM BKN018 BKN080
     FM301700 20007KT P6SM VCSH SCT025 BKN035
     FM302300 23003KT P6SM SKC=

USA.gov is the U.S. government's official web portal to all federal, state and local government web resources and services.